Time;durP1;ratioP1;P1;durP2;ratioP2;P2;SDS_P1;SDS_P2;PMS_P1;PMS_P2;Temp;Humidity;BMP_temperature;BMP_pressure;BME280_temperature;BME280_humidity;BME280_pressure;Samples;Min_cycle;Max_cycle;Signal;HPM_P1;HPM_P2
2022/01/25 00:09:05;;;;;;;8.05;3.45;;;;;;;18.83;52.72;98011.03;10456881;28;20068;-22
2022/01/25 00:34:44;;;;;;;5.83;3.07;;;;;;;18.82;53.06;98016.09;10422703;28;20044;-22
2022/01/25 00:39:45;;;;;;;8.38;3.10;;;;;;;18.85;52.91;98016.16;10451658;28;20299;-22
2022/01/25 00:44:48;;;;;;;5.97;3.17;;;;;;;18.83;52.84;98017.81;10411913;28;20061;-24
2022/01/25 00:49:52;;;;;;;8.80;3.15;;;;;;;18.81;52.60;98014.38;10420059;28;20033;-23
2022/01/25 00:54:53;;;;;;;8.30;3.13;;;;;;;18.81;52.73;98009.28;10449362;28;20123;-23
2022/01/25 00:59:54;;;;;;;4.22;3.13;;;;;;;18.80;53.21;98012.66;10411034;28;20037;-23
2022/01/25 01:04:54;;;;;;;4.97;2.72;;;;;;;18.80;53.29;98007.59;10430556;28;20039;-24
2022/01/25 01:09:55;;;;;;;8.77;4.20;;;;;;;18.80;52.92;98005.91;10448247;28;20034;-23
2022/01/25 01:31:14;;;;;;;4.68;2.78;;;;;;;18.84;52.98;98015.28;10447164;28;20092;-23
2022/01/25 01:47:03;;;;;;;7.35;2.83;;;;;;;18.78;53.16;98016.84;10447013;28;20315;-24
2022/01/25 01:52:05;;;;;;;8.70;3.15;;;;;;;18.82;52.99;98026.25;10424273;28;20212;-24
2022/01/25 01:57:06;;;;;;;6.05;2.65;;;;;;;18.78;53.10;98004.16;10429957;28;20040;-23
2022/01/25 02:02:06;;;;;;;7.10;2.92;;;;;;;18.80;53.20;98010.13;10452594;28;20033;-24
2022/01/25 02:07:07;;;;;;;4.57;2.80;;;;;;;18.80;53.09;98005.03;10413757;28;20197;-22
2022/01/25 02:12:07;;;;;;;5.03;3.13;;;;;;;18.82;53.06;98005.94;10430256;28;20044;-23
2022/01/25 02:17:26;;;;;;;3.88;2.33;;;;;;;18.82;53.06;97996.63;10451778;28;20044;-23
2022/01/25 02:22:31;;;;;;;5.43;2.75;;;;;;;18.83;52.96;97992.44;10450238;28;20111;-23
2022/01/25 02:27:32;;;;;;;5.40;2.83;;;;;;;18.80;53.18;97989.81;10425514;28;20033;-23
2022/01/25 02:32:32;;;;;;;5.97;2.40;;;;;;;18.79;52.91;97990.66;10412405;28;20037;-23
2022/01/25 02:37:33;;;;;;;4.70;2.20;;;;;;;18.79;53.08;97988.97;10450880;28;20044;-24
2022/01/25 02:42:33;;;;;;;5.32;2.53;;;;;;;18.81;52.88;97983.91;10448930;28;20119;-23
2022/01/25 02:52:53;;;;;;;6.13;2.80;;;;;;;18.81;52.68;97989.00;10409258;28;20088;-22
2022/01/25 02:57:53;;;;;;;4.10;2.40;;;;;;;18.78;52.88;97981.34;10434632;28;20411;-23
2022/01/25 03:02:53;;;;;;;4.77;2.30;;;;;;;18.81;52.51;97974.63;10450129;28;20517;-22
2022/01/25 03:07:55;;;;;;;3.83;2.33;;;;;;;18.80;52.82;97983.06;10412745;28;20021;-22
2022/01/25 03:12:57;;;;;;;4.38;2.10;;;;;;;18.82;52.66;97978.03;10435102;28;20060;-23
2022/01/25 03:18:01;;;;;;;4.90;2.63;;;;;;;18.79;52.87;97971.22;10449816;28;20036;-23
2022/01/25 03:23:16;;;;;;;4.15;2.17;;;;;;;18.80;52.72;97977.13;10419834;28;20036;-22
2022/01/25 03:28:19;;;;;;;6.18;2.53;;;;;;;18.81;52.79;97969.56;10437356;28;20086;-23
2022/01/25 03:33:21;;;;;;;9.70;2.90;;;;;;;18.85;52.72;97967.94;10424158;28;20041;-23
2022/01/25 03:38:22;;;;;;;5.88;2.47;;;;;;;18.84;53.07;97963.69;10408269;28;20034;-23
2022/01/25 03:43:22;;;;;;;3.35;2.30;;;;;;;18.83;52.97;97956.91;10447742;28;20037;-25
2022/01/25 03:53:23;;;;;;;4.87;2.40;;;;;;;18.80;53.25;97954.28;10413633;28;20034;-23
2022/01/25 03:58:23;;;;;;;4.15;2.20;;;;;;;18.78;53.39;97951.75;10438261;28;20303;-22
2022/01/25 04:03:32;;;;;;;2.83;2.08;;;;;;;18.82;53.23;97950.97;10449687;28;20463;-24
2022/01/25 04:08:34;;;;;;;4.57;2.72;;;;;;;18.78;53.11;97958.50;10414823;28;20028;-24
2022/01/25 04:13:34;;;;;;;4.97;2.22;;;;;;;18.77;53.39;97952.56;10440024;28;20040;-24
2022/01/25 04:18:48;;;;;;;3.97;2.00;;;;;;;18.78;53.25;97954.28;10442316;28;20047;-23
2022/01/25 04:29:07;;;;;;;3.88;2.05;;;;;;;18.77;53.15;97941.56;10451507;28;20314;-23
2022/01/25 04:34:12;;;;;;;6.10;2.15;;;;;;;18.76;53.35;97940.69;10423756;28;20617;-22
2022/01/25 04:49:56;;;;;;;5.25;1.98;;;;;;;18.80;52.67;97951.75;10422973;28;20103;-23
2022/01/25 05:00:27;;;;;;;2.03;1.60;;;;;;;18.81;52.76;97958.53;10400880;28;20049;-23
2022/01/25 05:05:33;;;;;;;2.63;1.58;;;;;;;18.84;52.71;97958.63;10400467;28;20037;-24
2022/01/25 05:10:46;;;;;;;6.50;2.00;;;;;;;18.88;52.49;97957.84;10408722;28;20574;-22
2022/01/25 05:26:05;;;;;;;4.40;2.05;;;;;;;18.91;52.12;97975.66;10404722;28;20035;-23
2022/01/25 05:31:06;;;;;;;4.13;2.03;;;;;;;18.90;51.99;97982.41;10403202;28;20052;-22
2022/01/25 05:36:06;;;;;;;3.40;1.90;;;;;;;18.84;51.71;97974.69;10406779;28;20383;-20
2022/01/25 05:41:07;;;;;;;3.83;2.42;;;;;;;18.93;51.49;97989.22;10429370;28;20291;-24
2022/01/25 05:46:19;;;;;;;5.43;2.00;;;;;;;18.86;51.69;97990.81;10411265;28;20075;-23
2022/01/25 05:51:19;;;;;;;7.35;3.00;;;;;;;18.47;49.39;97982.44;10410156;28;20219;-23
2022/01/25 05:56:20;;;;;;;11.40;3.03;;;;;;;18.77;50.95;97979.63;10438257;28;20533;-24
2022/01/25 06:01:21;;;;;;;5.50;2.42;;;;;;;18.72;51.95;97981.22;10409990;28;20280;-22
2022/01/25 06:06:21;;;;;;;4.28;2.35;;;;;;;18.79;51.28;97998.25;10384474;28;20055;-22
2022/01/25 06:11:22;;;;;;;7.63;2.88;;;;;;;18.77;51.28;97992.31;10423945;28;20032;-23
2022/01/25 06:16:24;;;;;;;8.00;2.88;;;;;;;18.82;51.45;98006.78;10445404;28;20047;-23
2022/01/25 06:21:25;;;;;;;15.00;2.47;;;;;;;18.79;51.71;97995.72;10405801;28;20087;-22
2022/01/25 06:26:26;;;;;;;3.47;2.05;;;;;;;18.83;50.27;98000.88;10442542;28;20545;-22
2022/01/25 06:31:27;;;;;;;3.88;2.03;;;;;;;18.77;51.17;97989.78;10440985;28;20119;-22
2022/01/25 06:36:28;;;;;;;6.38;2.97;;;;;;;18.03;42.23;98005.09;10428918;28;20032;-22
2022/01/25 06:41:33;;;;;;;19.17;3.72;;;;;;;18.16;43.82;98007.94;10434586;28;20041;-22
2022/01/25 06:46:34;;;;;;;16.38;2.70;;;;;;;18.53;49.67;98012.13;10409137;28;20026;-23
2022/01/25 06:51:34;;;;;;;16.90;2.78;;;;;;;18.72;50.87;98014.19;10409531;28;20034;-22
2022/01/25 06:56:35;;;;;;;13.95;3.28;;;;;;;18.72;50.79;98007.44;10409145;28;20040;-23
2022/01/25 07:01:35;;;;;;;9.83;2.30;;;;;;;18.65;51.40;98003.06;10408967;28;20048;-22
2022/01/25 07:06:36;;;;;;;10.32;2.95;;;;;;;18.74;51.20;98017.63;10407099;28;20288;-22
2022/01/25 07:11:36;;;;;;;8.25;2.85;;;;;;;18.78;51.29;98024.47;10422882;28;20411;-22
2022/01/25 07:16:36;;;;;;;11.70;2.00;;;;;;;18.74;51.31;98031.16;10450452;28;20055;-22
2022/01/25 07:21:37;;;;;;;9.30;2.23;;;;;;;18.82;51.20;98031.31;10412287;28;20292;-22
2022/01/25 07:26:37;;;;;;;5.10;2.67;;;;;;;18.88;50.93;98042.44;10426242;28;20295;-22
2022/01/25 07:31:38;;;;;;;7.27;2.90;;;;;;;18.86;51.21;98056.78;10436955;28;20075;-22
2022/01/25 07:36:41;;;;;;;7.50;2.22;;;;;;;18.86;51.16;98058.47;10423255;28;20639;-23
2022/01/25 07:41:41;;;;;;;11.77;5.18;;;;;;;18.80;48.83;98054.13;10447864;28;20083;-23
2022/01/25 07:46:41;;;;;;;13.13;4.45;;;;;;;18.71;51.57;98042.91;10449016;28;20083;-23
2022/01/25 07:51:42;;;;;;;14.95;5.47;;;;;;;18.80;51.40;98059.19;10440271;28;20041;-23
2022/01/25 07:56:42;;;;;;;18.30;6.27;;;;;;;18.83;51.75;98058.41;10430982;28;20036;-23
2022/01/25 08:01:43;;;;;;;20.90;5.35;;;;;;;18.84;51.73;98052.50;10455920;28;20279;-23
2022/01/25 08:06:44;;;;;;;22.45;7.35;;;;;;;18.88;51.73;98061.88;10425394;28;20288;-22
2022/01/25 08:11:44;;;;;;;15.32;6.13;;;;;;;18.86;51.93;98061.00;10430624;28;20044;-22
2022/01/25 08:16:50;;;;;;;18.05;6.82;;;;;;;18.87;51.99;98061.03;10457230;28;20037;-24
2022/01/25 08:21:50;;;;;;;16.10;6.32;;;;;;;18.90;51.98;98060.22;10436153;28;20045;-23
2022/01/25 08:26:51;;;;;;;20.35;6.00;;;;;;;18.89;51.87;98053.44;10431963;28;20403;-23
2022/01/25 08:31:51;;;;;;;15.82;6.43;;;;;;;18.91;52.13;98061.97;10442753;28;20514;-22
2022/01/25 08:36:52;;;;;;;15.77;5.60;;;;;;;18.90;52.13;98055.13;10447600;28;20059;-23
2022/01/25 08:41:52;;;;;;;13.93;5.90;;;;;;;18.89;52.12;98048.34;10454284;28;20059;-23
2022/01/25 08:46:53;;;;;;;12.35;6.30;;;;;;;18.90;52.08;98043.31;10455495;28;20029;-23
2022/01/25 08:51:54;;;;;;;12.77;5.38;;;;;;;18.92;51.63;98043.38;10453943;28;20395;-23
2022/01/25 08:56:55;;;;;;;14.77;6.53;;;;;;;18.92;51.74;98040.81;10435458;28;20072;-22
2022/01/25 09:01:55;;;;;;;14.35;5.22;;;;;;;18.90;51.96;98045.00;10414626;28;20335;-23
2022/01/25 09:06:56;;;;;;;14.40;6.40;;;;;;;18.91;51.82;98051.81;10438805;28;20048;-23
2022/01/25 09:11:57;;;;;;;12.15;5.47;;;;;;;18.91;51.85;98046.72;10452759;28;20322;-23
2022/01/25 09:16:57;;;;;;;12.55;5.72;;;;;;;18.89;52.02;98058.50;10452814;28;20079;-23
2022/01/25 09:21:57;;;;;;;11.93;5.33;;;;;;;18.91;51.79;98049.28;10434626;28;20398;-22
2022/01/25 09:26:58;;;;;;;11.43;5.87;;;;;;;18.87;52.03;98060.16;10431942;28;20395;-23
2022/01/25 09:31:58;;;;;;;9.90;5.18;;;;;;;18.88;51.90;98051.72;10413252;28;20292;-22
2022/01/25 09:36:59;;;;;;;10.48;5.13;;;;;;;18.90;51.82;98065.28;10433074;28;20563;-22
2022/01/25 09:42:00;;;;;;;9.05;4.88;;;;;;;18.89;52.10;98053.44;10451455;28;20543;-23
2022/01/25 09:47:01;;;;;;;11.02;5.57;;;;;;;18.91;52.44;98061.97;10452922;28;20036;-23
2022/01/25 09:52:04;;;;;;;11.18;5.22;;;;;;;18.89;52.15;98063.59;10451158;28;20035;-23
2022/01/25 09:57:05;;;;;;;13.18;5.10;;;;;;;18.88;52.44;98065.28;10449784;28;20033;-22
2022/01/25 10:02:07;;;;;;;9.77;4.53;;;;;;;18.95;52.11;98053.56;10451007;28;20491;-23
2022/01/25 10:07:10;;;;;;;9.38;4.97;;;;;;;18.97;52.26;98056.97;10426313;28;20030;-22
2022/01/25 10:12:22;;;;;;;7.63;4.28;;;;;;;18.98;51.92;98056.16;10409714;28;20129;-23
2022/01/25 10:17:30;;;;;;;10.45;4.68;;;;;;;18.96;52.24;98047.66;10409405;28;20037;-22
2022/01/25 10:22:47;;;;;;;8.68;4.65;;;;;;;18.95;52.64;98038.34;10448720;28;20126;-23
2022/01/25 10:28:01;;;;;;;9.35;4.78;;;;;;;18.93;52.42;98040.00;10450435;28;20067;-23
2022/01/25 10:33:02;;;;;;;6.85;4.18;;;;;;;18.91;52.70;98039.13;10428479;28;20512;-23
2022/01/25 10:38:17;;;;;;;8.93;5.20;;;;;;;18.90;52.75;98037.38;10447709;28;20128;-23
2022/01/25 10:43:23;;;;;;;8.00;4.65;;;;;;;18.91;52.76;98031.50;10399488;28;20034;-23
2022/01/25 10:48:30;;;;;;;7.43;4.53;;;;;;;18.85;52.59;98029.69;10411632;28;20021;-22
2022/01/25 10:53:31;;;;;;;9.35;4.25;;;;;;;18.92;52.91;98030.66;10450674;28;20044;-23
2022/01/25 10:58:36;;;;;;;7.75;4.22;;;;;;;19.01;52.36;98026.59;10411024;28;20044;-23
2022/01/25 11:03:42;;;;;;;12.45;4.13;;;;;;;19.05;52.59;98022.44;10404496;28;20705;-23
2022/01/25 11:08:45;;;;;;;8.73;4.18;;;;;;;19.03;52.50;98021.56;10416229;28;20115;-22
2022/01/25 11:13:49;;;;;;;9.40;3.60;;;;;;;19.02;52.58;98009.69;10408697;28;20033;-23
2022/01/25 11:18:49;;;;;;;10.43;4.50;;;;;;;19.00;52.99;98006.28;10408866;28;20061;-22
2022/01/25 11:23:51;;;;;;;7.40;3.65;;;;;;;19.01;53.16;98013.06;10449818;28;20048;-22
2022/01/25 11:28:52;;;;;;;8.07;4.40;;;;;;;19.04;52.88;98008.03;10416783;28;20033;-22
2022/01/25 11:33:53;;;;;;;8.40;3.80;;;;;;;19.04;53.10;98008.91;10430219;28;20572;-22
2022/01/25 11:38:54;;;;;;;10.68;4.78;;;;;;;18.84;47.99;98011.91;10457689;28;20412;-20
2022/01/25 11:44:14;;;;;;;8.43;3.80;;;;;;;19.04;50.86;98015.66;10456004;28;20043;-24
2022/01/25 11:49:19;;;;;;;11.20;3.72;;;;;;;19.21;51.26;98009.22;10451009;28;20559;-22
2022/01/25 11:54:20;;;;;;;8.02;3.40;;;;;;;19.26;51.14;98010.19;10414460;28;20104;-22
2022/01/25 11:59:20;;;;;;;16.45;6.00;;;;;;;19.28;51.32;98008.50;10411675;28;20441;-22
2022/01/25 12:04:20;;;;;;;55.73;20.43;;;;;;;19.30;51.23;97996.69;10410808;28;20029;-22
2022/01/25 12:09:41;;;;;;;54.27;25.63;;;;;;;19.32;51.73;97995.03;10417369;28;20315;-23
2022/01/25 12:14:49;;;;;;;47.67;18.40;;;;;;;19.32;51.23;97997.56;10413496;28;20302;-23
2022/01/25 12:20:00;;;;;;;37.85;16.00;;;;;;;19.27;51.39;97986.50;10418620;28;20040;-21
2022/01/25 12:25:21;;;;;;;39.38;14.30;;;;;;;19.24;50.65;97982.22;10452003;28;20175;-23
2022/01/25 12:30:24;;;;;;;31.35;13.43;;;;;;;19.21;50.95;97973.69;10414874;28;20037;-22
2022/01/25 12:36:01;;;;;;;32.65;14.02;;;;;;;19.22;50.92;97963.56;10425169;28;20098;-23
2022/01/25 12:41:05;;;;;;;33.38;14.27;;;;;;;19.16;51.04;97960.88;10440756;28;20495;-22
2022/01/25 12:46:10;;;;;;;34.00;13.23;;;;;;;19.12;52.31;97960.81;10454959;28;20090;-22
2022/01/25 12:51:13;;;;;;;25.92;10.88;;;;;;;19.00;52.66;97935.22;10416922;28;20041;-22
2022/01/25 12:56:24;;;;;;;25.85;11.20;;;;;;;19.09;52.89;97941.28;10425730;28;20059;-22
2022/01/25 13:01:26;;;;;;;29.65;12.32;;;;;;;19.07;53.42;97937.00;10453635;28;20041;-22
2022/01/25 13:06:40;;;;;;;22.55;9.32;;;;;;;19.01;52.11;97924.25;10426100;28;20178;-23
2022/01/25 13:11:57;;;;;;;24.10;11.32;;;;;;;18.98;53.95;97914.88;10404845;28;20072;-22
2022/01/25 13:17:17;;;;;;;22.98;10.55;;;;;;;19.02;54.41;97924.25;10453511;28;20388;-22
2022/01/25 13:22:21;;;;;;;23.55;9.23;;;;;;;19.07;53.80;97922.66;10371617;28;20045;-22
2022/01/25 13:27:22;;;;;;;19.13;8.40;;;;;;;19.10;52.42;97917.63;10414656;28;20548;-23
2022/01/25 13:32:26;;;;;;;29.70;10.13;;;;;;;19.11;53.77;97916.81;10453890;28;20037;-22
2022/01/25 13:37:27;;;;;;;22.42;8.85;;;;;;;19.16;53.86;97911.81;10419052;28;20040;-23
2022/01/25 13:42:41;;;;;;;20.08;9.20;;;;;;;19.18;53.78;97910.97;10444774;28;20033;-22
2022/01/25 13:47:42;;;;;;;20.73;9.15;;;;;;;19.16;54.46;97899.09;10436661;28;20029;-23
2022/01/25 13:52:42;;;;;;;24.57;8.67;;;;;;;19.16;53.59;97909.25;10412846;28;20033;-22
2022/01/25 13:57:42;;;;;;;17.48;9.40;;;;;;;19.15;53.90;97912.59;10435192;28;20318;-24
2022/01/25 14:02:48;;;;;;;20.08;9.40;;;;;;;19.09;54.36;97907.44;10456352;28;20037;-21
2022/01/25 14:07:52;;;;;;;21.67;8.77;;;;;;;19.14;53.89;97909.22;10417432;28;20091;-22
2022/01/25 14:23:35;;;;;;;17.08;8.60;;;;;;;19.12;54.69;97903.28;10454463;28;20430;-22
2022/01/25 14:28:41;;;;;;;18.55;8.07;;;;;;;19.15;54.82;97907.53;10454268;28;20035;-22
2022/01/25 14:33:49;;;;;;;20.00;7.78;;;;;;;19.16;55.04;97907.56;10438840;28;20048;-22
2022/01/25 14:38:52;;;;;;;23.77;8.80;;;;;;;19.15;54.74;97910.06;10453943;28;20056;-22
2022/01/25 14:43:57;;;;;;;19.63;7.95;;;;;;;19.13;55.30;97906.66;10454414;28;20522;-23
2022/01/25 14:49:00;;;;;;;18.75;8.70;;;;;;;19.12;55.08;97900.75;10453832;28;20033;-23
2022/01/25 14:54:02;;;;;;;16.25;7.97;;;;;;;19.10;55.94;97899.84;10455032;28;20047;-22
2022/01/25 14:59:27;;;;;;;17.48;7.35;;;;;;;19.13;55.71;97904.13;10417255;28;20033;-22
2022/01/25 15:04:31;;;;;;;15.20;7.28;;;;;;;19.11;55.82;97908.31;10413526;28;20190;-23
2022/01/25 15:09:31;;;;;;;15.10;7.05;;;;;;;19.09;55.84;97897.31;10413961;28;20041;-22
2022/01/25 15:14:38;;;;;;;12.63;7.18;;;;;;;19.07;56.36;97911.63;10452358;28;20488;-21
2022/01/25 15:19:39;;;;;;;16.55;7.93;;;;;;;19.00;57.04;97903.06;10450778;28;20458;-22
2022/01/25 15:24:42;;;;;;;14.87;7.10;;;;;;;19.04;55.75;97906.50;10435208;28;20091;-24
2022/01/25 15:29:43;;;;;;;17.73;6.38;;;;;;;19.04;55.75;97914.13;10372472;28;20038;-23
2022/01/25 15:34:44;;;;;;;15.38;7.13;;;;;;;19.02;55.66;97913.25;10385593;28;20194;-22
2022/01/25 15:39:45;;;;;;;14.82;6.88;;;;;;;18.98;55.48;97911.47;10419248;28;20041;-22
2022/01/25 15:44:47;;;;;;;12.93;6.43;;;;;;;18.99;55.03;97915.75;10450714;28;20467;-23
2022/01/25 15:49:48;;;;;;;14.57;6.45;;;;;;;18.99;55.11;97919.13;10424458;28;20044;-24
2022/01/25 15:54:49;;;;;;;13.52;6.40;;;;;;;19.03;55.75;97920.91;10445976;28;20454;-22
2022/01/25 15:59:49;;;;;;;12.63;6.88;;;;;;;19.05;55.89;97923.44;10408056;28;20052;-23
2022/01/25 16:04:50;;;;;;;16.45;6.50;;;;;;;19.10;55.93;97914.25;10408104;28;20434;-25
2022/01/25 16:09:55;;;;;;;11.13;6.10;;;;;;;19.11;55.67;97914.28;10409531;28;20393;-23
2022/01/25 16:14:56;;;;;;;13.82;6.85;;;;;;;19.05;55.58;97911.63;10451544;28;20029;-22
2022/01/25 16:19:56;;;;;;;13.13;5.93;;;;;;;18.94;55.64;97910.59;10434466;28;20495;-23
2022/01/25 16:24:57;;;;;;;10.88;6.53;;;;;;;19.02;55.46;97906.47;10415377;28;20037;-23
2022/01/25 16:29:57;;;;;;;10.25;5.53;;;;;;;19.03;55.60;97909.88;10414870;28;20120;-23
2022/01/25 16:34:58;;;;;;;10.80;5.97;;;;;;;19.04;55.07;97911.59;10411552;28;20517;-23
2022/01/25 16:39:59;;;;;;;11.43;5.68;;;;;;;19.03;55.71;97915.81;10422818;28;20302;-23
2022/01/25 16:45:01;;;;;;;10.63;6.00;;;;;;;19.04;55.92;97922.59;10414592;28;20112;-22
2022/01/25 16:50:10;;;;;;;13.43;6.32;;;;;;;19.09;55.54;97926.06;10420049;28;20639;-22
2022/01/25 16:55:12;;;;;;;10.40;5.43;;;;;;;19.07;55.67;97932.81;10417294;28;20049;-24
2022/01/25 17:00:16;;;;;;;14.57;6.22;;;;;;;18.94;50.75;97945.25;10455401;28;20523;-23
2022/01/25 17:05:16;;;;;;;14.88;5.95;;;;;;;18.98;54.86;97947.88;10431302;28;20035;-23
2022/01/25 17:10:17;;;;;;;12.98;5.78;;;;;;;19.09;55.93;97953.16;10387120;28;20278;-22
2022/01/25 17:15:18;;;;;;;18.17;5.72;;;;;;;19.02;55.42;97964.03;10423003;28;20041;-23
2022/01/25 17:20:20;;;;;;;15.68;6.43;;;;;;;19.03;55.62;97968.25;10454244;28;20558;-23
2022/01/25 17:25:20;;;;;;;13.88;5.55;;;;;;;19.01;55.63;97969.94;10427196;28;20495;-23
2022/01/25 17:30:21;;;;;;;14.50;5.38;;;;;;;18.86;55.69;97959.50;10453972;28;20037;-24
2022/01/25 17:35:21;;;;;;;12.68;5.95;;;;;;;18.86;55.28;97967.97;10421728;28;20041;-23
2022/01/25 17:40:22;;;;;;;10.07;4.93;;;;;;;18.96;55.00;97994.34;10422352;28;20033;-26
2022/01/25 17:45:22;;;;;;;9.88;5.35;;;;;;;18.98;54.97;97997.75;10389980;28;20037;-22
2022/01/25 17:50:24;;;;;;;8.30;4.57;;;;;;;18.95;54.97;97998.59;10396664;28;20108;-23
2022/01/25 17:55:24;;;;;;;11.70;5.82;;;;;;;18.97;54.35;97993.53;10381277;28;20296;-22
2022/01/25 18:00:25;;;;;;;10.20;4.90;;;;;;;18.91;54.54;97988.34;10365992;28;20524;-23
2022/01/25 18:05:25;;;;;;;11.18;5.78;;;;;;;19.03;54.31;98003.78;10416698;28;20028;-22
2022/01/25 18:10:26;;;;;;;22.97;5.67;;;;;;;18.99;55.25;98005.41;10449443;28;20407;-23
2022/01/25 18:15:27;;;;;;;13.15;5.55;;;;;;;19.00;55.53;98001.22;10380858;28;20292;-23
2022/01/25 18:20:31;;;;;;;14.95;6.40;;;;;;;19.00;54.08;97999.50;10433640;28;20488;-23
2022/01/25 18:30:36;;;;;;;11.88;5.05;;;;;;;18.94;54.40;98001.09;10404458;28;20040;-22
2022/01/25 18:35:43;;;;;;;8.70;4.95;;;;;;;18.94;54.44;98001.09;10409136;28;20041;-23
2022/01/25 18:40:45;;;;;;;13.52;4.97;;;;;;;18.90;54.40;97995.09;10426589;28;20086;-23
2022/01/25 18:45:48;;;;;;;8.90;5.00;;;;;;;18.91;54.23;97989.19;10432473;28;20033;-22
2022/01/25 18:50:50;;;;;;;11.15;5.00;;;;;;;19.00;54.03;97996.13;10399792;28;20033;-24
2022/01/25 18:55:51;;;;;;;7.60;4.70;;;;;;;18.96;53.87;97984.19;10395526;28;20492;-22
2022/01/25 19:00:51;;;;;;;8.45;4.65;;;;;;;18.97;53.90;97986.78;10394366;28;20041;-23
2022/01/25 19:05:52;;;;;;;10.10;4.87;;;;;;;18.94;53.75;97996.00;10393524;28;20063;-23
2022/01/25 19:10:53;;;;;;;8.45;4.43;;;;;;;18.98;53.76;97990.16;10389906;28;20597;-24
2022/01/25 19:15:53;;;;;;;9.23;3.60;;;;;;;18.96;54.64;97989.28;10392127;28;20048;-23
2022/01/25 19:20:54;;;;;;;8.97;4.53;;;;;;;18.92;54.96;97988.38;10381786;28;20137;-23
2022/01/25 19:25:55;;;;;;;8.63;4.90;;;;;;;18.87;54.72;97969.69;10383788;28;20785;-22
2022/01/25 19:30:55;;;;;;;9.48;4.35;;;;;;;18.93;55.31;97974.84;10382951;28;20045;-23
2022/01/25 19:35:56;;;;;;;12.43;4.07;;;;;;;18.94;55.22;97974.03;10368638;28;20412;-22
2022/01/25 19:41:00;;;;;;;5.75;4.18;;;;;;;19.00;55.13;97980.91;10389317;28;20048;-23
2022/01/25 19:46:01;;;;;;;9.60;4.45;;;;;;;19.01;54.71;97975.00;10375739;28;20077;-23
2022/01/25 19:51:06;;;;;;;8.98;4.30;;;;;;;18.99;55.17;97980.03;10384633;28;20029;-23
2022/01/25 19:56:08;;;;;;;6.22;3.90;;;;;;;18.99;55.04;97984.28;10370163;28;20034;-24
2022/01/25 20:01:10;;;;;;;8.05;3.90;;;;;;;19.00;55.24;97988.53;10372127;28;20520;-22
2022/01/25 20:06:11;;;;;;;8.50;3.83;;;;;;;19.02;54.84;97989.41;10378101;28;20064;-23
2022/01/25 20:11:18;;;;;;;9.65;4.50;;;;;;;19.00;55.03;97991.06;10386229;28;20041;-25
2022/01/25 20:16:19;;;;;;;9.05;3.78;;;;;;;18.97;55.68;97996.06;10413368;28;20682;-23
2022/01/25 20:21:25;;;;;;;14.80;4.32;;;;;;;18.98;55.71;98000.31;10390095;28;20029;-23
2022/01/25 20:31:29;;;;;;;12.63;5.25;;;;;;;19.02;55.93;97994.47;10392307;28;20092;-24
2022/01/25 20:36:29;;;;;;;10.32;5.20;;;;;;;19.01;56.24;97990.22;10415531;28;20455;-22
2022/01/25 20:41:30;;;;;;;9.93;4.43;;;;;;;18.87;55.86;97969.69;10383928;28;20080;-22
2022/01/25 20:46:31;;;;;;;8.73;4.70;;;;;;;19.01;55.99;98002.91;10382255;28;20165;-24
2022/01/25 20:51:32;;;;;;;9.35;4.22;;;;;;;19.02;55.81;98004.63;10433915;28;20805;-23
2022/01/25 20:56:32;;;;;;;14.75;4.57;;;;;;;19.02;56.03;97989.41;10438476;28;20115;-23
2022/01/25 21:01:34;;;;;;;10.00;4.30;;;;;;;18.99;55.98;97994.44;10413054;28;20069;-23
2022/01/25 21:06:42;;;;;;;9.50;4.22;;;;;;;18.99;55.67;97979.22;10427507;28;20522;-23
2022/01/25 21:11:44;;;;;;;9.73;3.85;;;;;;;19.00;55.25;97981.75;10437418;28;20273;-23
2022/01/25 21:16:46;;;;;;;12.18;4.32;;;;;;;19.00;54.87;97980.91;10427803;28;20048;-23
2022/01/25 21:21:46;;;;;;;7.60;4.05;;;;;;;18.96;54.35;97967.31;10455254;28;20061;-23
2022/01/25 21:26:48;;;;;;;8.88;4.10;;;;;;;19.00;54.18;97966.53;10434418;28;20387;-23
2022/01/25 21:31:49;;;;;;;7.45;4.15;;;;;;;19.01;54.07;97959.78;10412125;28;20033;-23
2022/01/25 21:36:50;;;;;;;8.13;3.80;;;;;;;19.01;54.14;97947.09;10411323;28;20034;-23
2022/01/25 21:41:51;;;;;;;7.78;3.58;;;;;;;19.00;54.46;97947.91;10423159;28;20524;-23
2022/01/25 21:46:52;;;;;;;8.95;4.22;;;;;;;18.98;54.22;97945.34;10412086;28;20033;-22
2022/01/25 21:51:52;;;;;;;6.85;3.53;;;;;;;18.99;54.21;97943.66;10410402;28;20480;-24
2022/01/25 21:56:53;;;;;;;11.57;4.47;;;;;;;18.97;54.35;97950.38;10428315;28;20110;-23
2022/01/25 22:01:54;;;;;;;5.68;4.07;;;;;;;18.95;54.28;97944.44;10453358;28;20308;-23
2022/01/25 22:06:57;;;;;;;7.65;3.92;;;;;;;18.92;54.35;97945.22;10447230;28;20032;-23
2022/01/25 22:12:05;;;;;;;8.02;3.75;;;;;;;18.92;54.21;97944.38;10430713;28;20156;-23
2022/01/25 22:17:05;;;;;;;8.70;3.78;;;;;;;18.88;54.10;97945.16;10410947;28;20171;-23
2022/01/25 22:22:07;;;;;;;8.70;3.65;;;;;;;18.93;54.16;97956.25;10410237;28;20083;-23
2022/01/25 22:27:08;;;;;;;6.35;3.03;;;;;;;18.93;54.22;97954.53;10428146;28;20543;-21
2022/01/25 22:32:08;;;;;;;7.40;3.70;;;;;;;18.93;54.04;97952.00;10451607;28;20097;-25
2022/01/25 22:37:09;;;;;;;6.90;3.55;;;;;;;18.92;53.98;97952.84;10449640;28;20041;-24
2022/01/25 22:42:09;;;;;;;7.22;3.20;;;;;;;18.88;54.07;97940.94;10448573;28;20082;-22
2022/01/25 22:47:14;;;;;;;12.77;3.63;;;;;;;18.90;54.27;97948.56;10422008;28;20048;-23
2022/01/25 22:52:17;;;;;;;7.05;3.15;;;;;;;18.91;53.92;97947.75;10434767;28;20060;-24
2022/01/25 22:57:17;;;;;;;5.95;3.42;;;;;;;18.91;53.78;97962.97;10448730;28;20039;-23
2022/01/25 23:02:28;;;;;;;7.82;3.38;;;;;;;18.83;54.09;97957.75;10451226;28;20041;-23
2022/01/25 23:07:30;;;;;;;6.18;3.10;;;;;;;18.91;53.85;97970.59;10423291;28;20034;-22
2022/01/25 23:17:55;;;;;;;5.97;3.20;;;;;;;18.96;53.64;97963.91;10443767;28;20038;-23
2022/01/25 23:22:55;;;;;;;5.87;3.53;;;;;;;18.90;53.72;97966.31;10407881;28;20042;-23
2022/01/25 23:27:57;;;;;;;7.72;3.40;;;;;;;18.89;53.76;97962.06;10432505;28;20677;-23
2022/01/25 23:38:16;;;;;;;8.25;3.38;;;;;;;18.88;53.67;97956.16;10419877;28;20034;-23
2022/01/25 23:43:25;;;;;;;4.97;2.70;;;;;;;18.87;53.74;97954.47;10431911;28;20033;-23
2022/01/25 23:48:25;;;;;;;5.88;3.28;;;;;;;18.87;53.84;97953.59;10410451;28;20502;-23
